Pitt Greenville Airport
KPGV : now visible

Airfield :











YOU CAN JOIN US ON...

 
LOGIN :

Register | Disclaimer

   EN    FR    IT 

 









Legend :    VFR   Marginal VFR   IFR   Intensive IFR   Very Intensive IFR
Visi :
Ceiling :
>= 8 km
>= 3000ft
5 to 8 km
1000 to 3000 ft
1500m to 5 km
500 to 1000 ft
800 to 1500m
200 to 500 ft
< 800m
< 200 ft
Symbols :   Thunderstorms  Fog  Heavy snow  Heavy precipitations  Wind > 20 kt






- Airport Elevation : 26 ft


KPGV - Pitt Greenville

CURRENT METAR :
  • 241135Z AUTO 00000KT 10SM CLR 06/00 A3013 RMK AO2

EXPIRED METARs :
  • 241115Z AUTO 00000KT 10SM CLR 06/00 A3012 RMK AO2
  • 241055Z AUTO 00000KT 10SM CLR 06/01 A3013 RMK AO2
  • 241035Z AUTO 00000KT 10SM CLR 07/00 A3013 RMK AO2
  • 241015Z AUTO 00000KT 10SM CLR 07/00 A3013 RMK AO2
  • 240955Z AUTO 00000KT 10SM CLR 07/00 A3013 RMK AO2
  • 240935Z AUTO 00000KT 10SM CLR 07/00 A3012 RMK AO2
  • 240915Z AUTO 00000KT 10SM CLR 07/00 A3013 RMK AO2
  • 240855Z AUTO 21004KT 10SM CLR 07/00 A3013 RMK AO2

TAF KPGV
Valid from the 24 at 12:00 until the 25 at 12:00 UTC


241126Z 2412/2512 VRB03KT P6SM FEW100
FM241800 22004KT P6SM -SHRA OVC045
FM242100 00000KT 6SM -SHRA OVC030
FM250000 VRB03KT 3SM -SHRA OVC009
FM250300 15004KT 3SM -SHRA OVC003 AMD LTD TO CLD VIS AND WIND



MET'MAP, your aeronautical weather chart ! - Copyright ORBIFLY December 2007 - Disclaimer

ORBIFLY MET'MAP TEAM :

Programming & Development : Alexandra Zaïnal
Concept & original design : Baudouin d'Aumeries
Assistance for programming : Marc-Olivier Méhu
Technical & hardware support : Manuel Goepfert

Contact : metmap@orbifly.com




SOURCES & CREDITS :

   NOAA       Earth
Advisory